William P Hobby Airport
KHOU : now visible

Airfield :











YOU CAN JOIN US ON...

 
LOGIN :

Register | Disclaimer

   EN    FR    IT 

 









Legend :    VFR   Marginal VFR   IFR   Intensive IFR   Very Intensive IFR
Visi :
Ceiling :
>= 8 km
>= 3000ft
5 to 8 km
1000 to 3000 ft
1500m to 5 km
500 to 1000 ft
800 to 1500m
200 to 500 ft
< 800m
< 200 ft
Symbols :   Thunderstorms  Fog  Heavy snow  Heavy precipitations  Wind > 20 kt







- Airport Elevation : 46 ft
- IATA code : HOU


KHOU - William P Hobby

CURRENT METAR :
  • 190953Z 00000KT 10SM FEW022 27/25 A2994 RMK AO2 SLP142 T02670250 $

EXPIRED METARs :
  • 190853Z 16003KT 10SM FEW022 27/25 A2994 RMK AO2 SLP141 T02720250 50002 $
  • 190753Z 13003KT 10SM SCT023 27/25 A2994 RMK AO2 SLP141 T02720250 $

TAF KHOU
Valid from the 19 at 09:00 until the 20 at 06:00 UTC


190900Z 1909/2006 16005KT P6SM SCT020
FM191400 20008KT P6SM BKN035
FM191700 19008KT P6SM VCSH SCT040
FM192300 17006KT P6SM FEW040
No reported NOTAMs for that airfield.



MET'MAP, your aeronautical weather chart ! - Copyright ORBIFLY December 2007 - Disclaimer

ORBIFLY MET'MAP TEAM :

Programming & Development : Alexandra Zaïnal
Concept & Development : Baudouin d'Aumeries
Co-Development & Prog : Marc-Olivier Méhu
Technical & hardware support : Manuel Goepfert

Contact : metmap@orbifly.com




SOURCES & CREDITS :

   NOAA       Earth
Advisory